Wetterstation Vordersexau
Wetterdaten: Woche 04.04.11 - 10.04.11 (KW14)
Datum Zeit Temp. A. Feuchte A. Luftdruck Regen Wind Richtung Taupunkt Windchill Windben
04.04.2011 00:00 13,8 C 86 % 1012,6 hPa 0,0 l/m 0,0 km/h W-NW 11,5 C 13,8 C 0,0 km/h
04.04.2011 01:00 13,3 C 86 % 1012,7 hPa 0,4 l/m 0,0 km/h N-NW 11,0 C 13,3 C 0,0 km/h
04.04.2011 02:00 13,3 C 86 % 1012,8 hPa 0,0 l/m 0,0 km/h NW 11,0 C 13,3 C 0,0 km/h
04.04.2011 03:00 11,8 C 87 % 1013,6 hPa 2,8 l/m 0,0 km/h SW 9,7 C 11,8 C 0,0 km/h
04.04.2011 04:00 11,2 C 86 % 1014,0 hPa 1,8 l/m 0,0 km/h NO 8,9 C 11,2 C 0,0 km/h
04.04.2011 05:00 10,1 C 87 % 1016,7 hPa 2,1 l/m 0,0 km/h W-NW 8,0 C 10,1 C 0,0 km/h
04.04.2011 06:00 9,4 C 87 % 1017,7 hPa 3,6 l/m 0,0 km/h W-NW 7,3 C 9,4 C 0,0 km/h
04.04.2011 07:00 8,5 C 87 % 1018,9 hPa 2,8 l/m 0,0 km/h W-NW 6,5 C 8,5 C 0,0 km/h
04.04.2011 08:00 7,6 C 88 % 1020,4 hPa 1,8 l/m 0,0 km/h S-SW 5,7 C 7,6 C 0,0 km/h
04.04.2011 09:00 8,4 C 88 % 1021,3 hPa 0,0 l/m 3,2 km/h S 6,5 C 8,4 C 1,8 km/h
04.04.2011 10:00 10,9 C 80 % 1022,3 hPa 0,0 l/m 3,9 km/h S-SO 7,6 C 10,9 C 2,2 km/h
04.04.2011 11:00 13,8 C 69 % 1022,7 hPa 0,0 l/m 0,0 km/h W 8,2 C 13,8 C 0,0 km/h
04.04.2011 12:00 14,5 C 62 % 1023,1 hPa 0,0 l/m 0,0 km/h N-NW 7,3 C 14,5 C 0,0 km/h
04.04.2011 13:00 17,0 C 59 % 1022,7 hPa 0,0 l/m 0,0 km/h N-NW 8,9 C 17,0 C 0,0 km/h
04.04.2011 14:00 15,3 C 55 % 1022,5 hPa 0,0 l/m 0,0 km/h N 6,3 C 15,3 C 0,0 km/h
04.04.2011 15:00 19,0 C 53 % 1022,2 hPa 0,0 l/m 0,0 km/h W-NW 9,2 C 19,0 C 0,0 km/h
04.04.2011 16:00 18,9 C 47 % 1021,9 hPa 0,0 l/m 1,3 km/h W-SW 7,3 C 18,9 C 0,7 km/h
04.04.2011 17:00 17,6 C 50 % 1022,1 hPa 0,0 l/m 1,3 km/h N 7,1 C 17,6 C 0,7 km/h
04.04.2011 18:00 14,3 C 56 % 1022,1 hPa 0,0 l/m 0,0 km/h O-SO 5,6 C 14,3 C 0,0 km/h
04.04.2011 19:00 12,5 C 64 % 1022,5 hPa 0,0 l/m 0,0 km/h S-SO 5,9 C 12,5 C 0,0 km/h
04.04.2011 20:00 9,8 C 80 % 1022,9 hPa 0,4 l/m 0,0 km/h SO 6,5 C 9,8 C 0,0 km/h
04.04.2011 21:00 8,9 C 85 % 1023,4 hPa 0,4 l/m 0,0 km/h O-NO 6,5 C 8,9 C 0,0 km/h
04.04.2011 22:00 8,8 C 86 % 1024,0 hPa 0,0 l/m 0,0 km/h SO 6,6 C 8,8 C 0,0 km/h
04.04.2011 23:00 8,3 C 86 % 1024,6 hPa 0,0 l/m 0,0 km/h SO 6,1 C 8,3 C 0,0 km/h
05.04.2011 00:00 7,3 C 87 % 1024,8 hPa 0,0 l/m 0,0 km/h SO 5,3 C 7,3 C 0,0 km/h
05.04.2011 01:00 7,9 C 87 % 1025,2 hPa 0,0 l/m 0,0 km/h SO 5,9 C 7,9 C 0,0 km/h
05.04.2011 02:00 7,9 C 87 % 1025,2 hPa 0,0 l/m 0,0 km/h O-SO 5,9 C 7,9 C 0,0 km/h
05.04.2011 03:00 7,4 C 87 % 1025,3 hPa 0,0 l/m 0,0 km/h O-NO 5,4 C 7,4 C 0,0 km/h
05.04.2011 04:00 6,7 C 87 % 1025,4 hPa 0,0 l/m 0,0 km/h O-SO 4,7 C 6,7 C 0,0 km/h
05.04.2011 05:00 6,1 C 87 % 1025,4 hPa 0,0 l/m 0,0 km/h O-NO 4,1 C 6,1 C 0,0 km/h
05.04.2011 06:00 5,1 C 87 % 1025,2 hPa 0,0 l/m 0,0 km/h O-NO 3,1 C 5,1 C 0,0 km/h
05.04.2011 07:00 4,6 C 87 % 1026,0 hPa 0,0 l/m 0,0 km/h S-SO 2,6 C 4,6 C 0,0 km/h
05.04.2011 08:00 6,9 C 85 % 1026,7 hPa 0,0 l/m 1,9 km/h O-NO 4,6 C 6,9 C 1,1 km/h
05.04.2011 09:00 14,5 C 81 % 1026,3 hPa 0,0 l/m 0,0 km/h W 11,3 C 14,5 C 0,0 km/h
05.04.2011 10:00 18,3 C 59 % 1026,7 hPa 0,0 l/m 0,0 km/h W-SW 10,1 C 18,3 C 0,0 km/h
05.04.2011 11:00 17,3 C 58 % 1026,3 hPa 0,0 l/m 0,0 km/h W-NW 9,0 C 17,3 C 0,0 km/h
05.04.2011 12:00 19,4 C 53 % 1026,1 hPa 0,0 l/m 5,8 km/h S-SW 9,6 C 19,4 C 3,2 km/h
05.04.2011 13:00 19,8 C 49 % 1025,9 hPa 0,0 l/m 6,5 km/h N-NW 8,8 C 19,8 C 3,6 km/h
05.04.2011 14:00 21,4 C 45 % 1025,3 hPa 0,0 l/m 6,5 km/h N-NW 9,0 C 21,4 C 3,6 km/h
05.04.2011 15:00 22,1 C 39 % 1024,8 hPa 0,0 l/m 0,0 km/h S 7,5 C 22,1 C 0,0 km/h
05.04.2011 16:00 25,8 C 33 % 1024,5 hPa 0,0 l/m 0,0 km/h S-SO 8,3 C 25,8 C 0,0 km/h
05.04.2011 17:00 22,2 C 37 % 1024,5 hPa 0,0 l/m 0,0 km/h S-SO 6,8 C 22,2 C 0,0 km/h
05.04.2011 18:00 18,2 C 51 % 1024,6 hPa 0,0 l/m 0,0 km/h NO 7,9 C 18,2 C 0,0 km/h
05.04.2011 19:00 15,3 C 59 % 1024,9 hPa 0,0 l/m 0,0 km/h O 7,3 C 15,3 C 0,0 km/h
05.04.2011 20:00 12,1 C 69 % 1025,3 hPa 0,0 l/m 0,0 km/h O-NO 6,6 C 12,1 C 0,0 km/h
05.04.2011 21:00 10,4 C 72 % 1025,8 hPa 0,0 l/m 0,0 km/h O-SO 5,6 C 10,4 C 0,0 km/h
05.04.2011 22:00 9,1 C 78 % 1026,2 hPa 0,0 l/m 0,0 km/h O 5,5 C 9,1 C 0,0 km/h
05.04.2011 23:00 9,6 C 79 % 1026,7 hPa 0,0 l/m 0,0 km/h SO 6,1 C 9,6 C 0,0 km/h
06.04.2011 00:00 9,5 C 80 % 1026,6 hPa 0,0 l/m 0,0 km/h SO 6,2 C 9,5 C 0,0 km/h
06.04.2011 01:00 9,9 C 79 % 1026,7 hPa 0,0 l/m 0,0 km/h SO 6,4 C 9,9 C 0,0 km/h
06.04.2011 02:00 9,7 C 81 % 1027,0 hPa 0,0 l/m 0,0 km/h SO 6,6 C 9,7 C 0,0 km/h
06.04.2011 03:00 9,9 C 80 % 1026,9 hPa 0,0 l/m 0,0 km/h O-SO 6,6 C 9,9 C 0,0 km/h
06.04.2011 04:00 9,7 C 80 % 1027,1 hPa 0,0 l/m 0,0 km/h SO 6,4 C 9,7 C 0,0 km/h
06.04.2011 05:00 10,2 C 80 % 1026,9 hPa 0,0 l/m 1,3 km/h O-SO 6,9 C 10,2 C 0,7 km/h
06.04.2011 06:00 10,3 C 80 % 1026,8 hPa 0,0 l/m 0,0 km/h SO 7,0 C 10,3 C 0,0 km/h
06.04.2011 07:00 10,4 C 80 % 1027,8 hPa 0,0 l/m 18,1 km/h SO 7,1 C 4,4 C 10,1 km/h
06.04.2011 08:00 11,8 C 78 % 1028,0 hPa 0,0 l/m 0,0 km/h S-SO 8,1 C 11,8 C 0,0 km/h
06.04.2011 09:00 13,8 C 73 % 1028,1 hPa 0,0 l/m 7,8 km/h N-NW 9,0 C 13,0 C 4,3 km/h
06.04.2011 10:00 17,2 C 61 % 1028,3 hPa 0,0 l/m 2,6 km/h NW 9,6 C 17,2 C 1,4 km/h
06.04.2011 11:00 21,3 C 52 % 1028,3 hPa 0,0 l/m 5,8 km/h W-SW 11,0 C 21,3 C 3,2 km/h
06.04.2011 12:00 23,1 C 46 % 1028,1 hPa 0,0 l/m 22,7 km/h NW 10,8 C 19,9 C 12,6 km/h
06.04.2011 13:00 22,5 C 45 % 1027,7 hPa 0,0 l/m 1,3 km/h W-SW 10,0 C 22,5 C 0,7 km/h
06.04.2011 14:00 24,3 C 44 % 1027,2 hPa 0,0 l/m 0,0 km/h W-NW 11,3 C 24,3 C 0,0 km/h
06.04.2011 15:00 26,2 C 42 % 1026,9 hPa 0,0 l/m 4,5 km/h W 12,3 C 26,2 C 2,5 km/h
06.04.2011 16:00 26,4 C 41 % 1026,3 hPa 0,0 l/m 3,9 km/h N-NW 12,1 C 26,4 C 2,2 km/h
06.04.2011 17:00 27,2 C 41 % 1025,9 hPa 0,0 l/m 0,0 km/h W-SW 12,8 C 27,2 C 0,0 km/h
06.04.2011 18:00 27,3 C 42 % 1025,7 hPa 0,0 l/m 1,3 km/h N-NO 13,2 C 27,3 C 0,7 km/h
06.04.2011 19:00 22,3 C 50 % 1025,9 hPa 0,0 l/m 0,0 km/h NO 11,4 C 22,3 C 0,0 km/h
06.04.2011 20:00 15,5 C 73 % 1025,7 hPa 0,0 l/m 0,0 km/h O-NO 10,7 C 15,5 C 0,0 km/h
06.04.2011 21:00 13,8 C 78 % 1026,2 hPa 0,0 l/m 0,0 km/h NO 10,0 C 13,8 C 0,0 km/h
06.04.2011 22:00 12,9 C 82 % 1026,1 hPa 0,0 l/m 0,0 km/h O-NO 9,9 C 12,9 C 0,0 km/h
06.04.2011 23:00 11,9 C 84 % 1025,9 hPa 0,0 l/m 0,0 km/h O-NO 9,3 C 11,9 C 0,0 km/h
07.04.2011 00:00 11,6 C 85 % 1025,6 hPa 0,0 l/m 0,0 km/h O-NO 9,2 C 11,6 C 0,0 km/h
07.04.2011 01:00 10,4 C 85 % 1025,3 hPa 0,0 l/m 0,0 km/h O-NO 8,0 C 10,4 C 0,0 km/h
07.04.2011 02:00 9,8 C 86 % 1025,6 hPa 0,0 l/m 0,0 km/h NO 7,6 C 9,8 C 0,0 km/h
07.04.2011 03:00 9,2 C 87 % 1024,9 hPa 0,0 l/m 0,0 km/h O 7,2 C 9,2 C 0,0 km/h
07.04.2011 04:00 8,7 C 86 % 1025,1 hPa 0,0 l/m 0,0 km/h O-SO 6,5 C 8,7 C 0,0 km/h
07.04.2011 05:00 8,8 C 87 % 1024,4 hPa 0,0 l/m 0,0 km/h SO 6,8 C 8,8 C 0,0 km/h
07.04.2011 06:00 8,5 C 86 % 1024,5 hPa 0,0 l/m 0,0 km/h SO 6,3 C 8,5 C 0,0 km/h
07.04.2011 07:00 8,7 C 86 % 1024,8 hPa 0,0 l/m 1,3 km/h O-SO 6,5 C 8,7 C 0,7 km/h
07.04.2011 08:00 11,5 C 86 % 1024,7 hPa 0,0 l/m 0,0 km/h S-SO 9,2 C 11,5 C 0,0 km/h
07.04.2011 09:00 19,6 C 71 % 1025,3 hPa 0,0 l/m 0,0 km/h W-NW 14,2 C 19,6 C 0,0 km/h
07.04.2011 10:00 23,6 C 55 % 1025,3 hPa 0,0 l/m 1,3 km/h W-SW 14,0 C 23,6 C 0,7 km/h
07.04.2011 11:00 25,9 C 48 % 1025,0 hPa 0,0 l/m 2,6 km/h W 14,0 C 25,9 C 1,4 km/h
07.04.2011 12:00 25,9 C 47 % 1024,1 hPa 0,0 l/m 5,8 km/h W-SW 13,7 C 25,9 C 3,2 km/h
07.04.2011 13:00 26,7 C 44 % 1023,2 hPa 0,0 l/m 15,6 km/h W-SW 13,4 C 25,3 C 8,6 km/h
07.04.2011 14:00 27,4 C 41 % 1022,4 hPa 0,0 l/m 5,2 km/h W 13,0 C 27,4 C 2,9 km/h
07.04.2011 15:00 29,7 C 35 % 1022,2 hPa 0,0 l/m 24,6 km/h W 12,6 C 28,5 C 13,7 km/h
07.04.2011 16:00 32,9 C 32 % 1021,4 hPa 0,0 l/m 0,0 km/h W 14,0 C 32,9 C 0,0 km/h
07.04.2011 17:00 31,2 C 34 % 1021,0 hPa 0,0 l/m 0,0 km/h N-NW 13,4 C 31,2 C 0,0 km/h
07.04.2011 18:00 28,4 C 35 % 1020,5 hPa 0,0 l/m 17,5 km/h NW 11,4 C 27,2 C 9,7 km/h
07.04.2011 19:00 24,8 C 44 % 1021,0 hPa 0,0 l/m 0,0 km/h N-NW 11,7 C 24,8 C 0,0 km/h
07.04.2011 20:00 19,9 C 52 % 1021,5 hPa 0,0 l/m 0,0 km/h N-NO 9,7 C 19,9 C 0,0 km/h
07.04.2011 21:00 15,7 C 69 % 1022,6 hPa 0,0 l/m 0,0 km/h O-NO 10,0 C 15,7 C 0,0 km/h
07.04.2011 22:00 13,4 C 74 % 1023,1 hPa 0,0 l/m 0,0 km/h O-NO 8,9 C 13,4 C 0,0 km/h
07.04.2011 23:00 11,8 C 77 % 1023,3 hPa 0,0 l/m 0,0 km/h NO 7,9 C 11,8 C 0,0 km/h
08.04.2011 00:00 11,0 C 78 % 1023,0 hPa 0,0 l/m 0,0 km/h NO 7,3 C 11,0 C 0,0 km/h
08.04.2011 01:00 10,3 C 82 % 1022,8 hPa 0,0 l/m 0,0 km/h O-NO 7,4 C 10,3 C 0,0 km/h
08.04.2011 02:00 9,8 C 82 % 1023,1 hPa 0,0 l/m 0,0 km/h S-SO 6,9 C 9,8 C 0,0 km/h
08.04.2011 03:00 8,9 C 84 % 1022,6 hPa 0,0 l/m 0,0 km/h SO 6,3 C 8,9 C 0,0 km/h
08.04.2011 04:00 8,3 C 85 % 1022,5 hPa 0,0 l/m 0,0 km/h SO 5,9 C 8,3 C 0,0 km/h
08.04.2011 05:00 7,6 C 85 % 1022,6 hPa 0,0 l/m 0,0 km/h SO 5,2 C 7,6 C 0,0 km/h
08.04.2011 06:00 7,3 C 86 % 1022,4 hPa 0,0 l/m 1,9 km/h SO 5,1 C 7,3 C 1,1 km/h
08.04.2011 07:00 8,2 C 86 % 1022,9 hPa 0,0 l/m 0,0 km/h SO 6,0 C 8,2 C 0,0 km/h
08.04.2011 08:00 10,1 C 86 % 1023,3 hPa 0,0 l/m 0,0 km/h NO 7,9 C 10,1 C 0,0 km/h
08.04.2011 09:00 12,5 C 81 % 1023,3 hPa 0,0 l/m 0,0 km/h W-SW 9,3 C 12,5 C 0,0 km/h
08.04.2011 10:00 17,1 C 68 % 1023,3 hPa 0,0 l/m 0,0 km/h W-NW 11,1 C 17,1 C 0,0 km/h
08.04.2011 11:00 21,5 C 54 % 1022,7 hPa 0,0 l/m 0,0 km/h N-NW 11,8 C 21,5 C 0,0 km/h
08.04.2011 12:00 22,2 C 53 % 1022,4 hPa 0,0 l/m 0,0 km/h N 12,2 C 22,2 C 0,0 km/h
08.04.2011 13:00 22,1 C 52 % 1021,7 hPa 0,0 l/m 3,2 km/h N 11,8 C 22,1 C 1,8 km/h
08.04.2011 14:00 22,4 C 48 % 1021,0 hPa 0,0 l/m 11,0 km/h W 10,8 C 21,0 C 6,1 km/h
08.04.2011 15:00 24,9 C 43 % 1020,6 hPa 0,0 l/m 10,4 km/h W-NW 11,4 C 24,0 C 5,8 km/h
08.04.2011 16:00 26,3 C 36 % 1020,0 hPa 0,0 l/m 1,9 km/h N-NO 10,0 C 26,3 C 1,1 km/h
08.04.2011 17:00 28,4 C 31 % 1019,7 hPa 0,0 l/m 1,3 km/h N 9,6 C 28,4 C 0,7 km/h
08.04.2011 18:00 27,6 C 29 % 1019,4 hPa 0,0 l/m 0,0 km/h N-NO 7,9 C 27,6 C 0,0 km/h
08.04.2011 19:00 22,6 C 31 % 1019,6 hPa 0,0 l/m 0,0 km/h O 4,6 C 22,6 C 0,0 km/h
08.04.2011 20:00 13,8 C 54 % 1020,5 hPa 0,0 l/m 0,0 km/h SO 4,7 C 13,8 C 0,0 km/h
08.04.2011 21:00 11,6 C 62 % 1021,0 hPa 0,0 l/m 0,0 km/h O-SO 4,6 C 11,6 C 0,0 km/h
08.04.2011 22:00 10,5 C 66 % 1021,5 hPa 0,0 l/m 0,0 km/h O-NO 4,4 C 10,5 C 0,0 km/h
08.04.2011 23:00 8,9 C 71 % 1021,7 hPa 0,0 l/m 0,0 km/h SO 3,9 C 8,9 C 0,0 km/h
09.04.2011 00:00 8,4 C 76 % 1021,7 hPa 0,0 l/m 0,0 km/h SO 4,4 C 8,4 C 0,0 km/h
09.04.2011 01:00 8,1 C 76 % 1021,5 hPa 0,0 l/m 0,0 km/h N-NO 4,1 C 8,1 C 0,0 km/h
09.04.2011 02:00 7,6 C 76 % 1021,2 hPa 0,0 l/m 0,0 km/h O 3,6 C 7,6 C 0,0 km/h
09.04.2011 03:00 6,6 C 80 % 1021,3 hPa 0,0 l/m 0,0 km/h O-NO 3,4 C 6,6 C 0,0 km/h
09.04.2011 04:00 5,8 C 82 % 1021,1 hPa 0,0 l/m 0,0 km/h O-NO 3,0 C 5,8 C 0,0 km/h
09.04.2011 05:00 5,1 C 85 % 1021,0 hPa 0,0 l/m 0,0 km/h NO 2,8 C 5,1 C 0,0 km/h
09.04.2011 06:00 4,7 C 86 % 1020,8 hPa 0,0 l/m 0,0 km/h O-NO 2,6 C 4,7 C 0,0 km/h
09.04.2011 07:00 4,7 C 86 % 1020,8 hPa 0,0 l/m 0,0 km/h O 2,6 C 4,7 C 0,0 km/h
09.04.2011 08:00 8,1 C 86 % 1021,0 hPa 0,0 l/m 0,0 km/h SO 5,9 C 8,1 C 0,0 km/h
09.04.2011 09:00 18,8 C 59 % 1020,9 hPa 0,0 l/m 0,0 km/h W 10,6 C 18,8 C 0,0 km/h
09.04.2011 10:00 19,9 C 49 % 1021,0 hPa 0,0 l/m 0,0 km/h W-SW 8,9 C 19,9 C 0,0 km/h
09.04.2011 11:00 23,1 C 45 % 1020,8 hPa 0,0 l/m 0,0 km/h N-NW 10,5 C 23,1 C 0,0 km/h
09.04.2011 12:00 23,1 C 45 % 1020,4 hPa 0,0 l/m 0,0 km/h W-NW 10,5 C 23,1 C 0,0 km/h
09.04.2011 13:00 23,4 C 46 % 1019,8 hPa 0,0 l/m 6,5 km/h W 11,1 C 23,4 C 3,6 km/h
09.04.2011 14:00 24,1 C 46 % 1019,1 hPa 0,0 l/m 7,8 km/h N-NW 11,7 C 23,7 C 4,3 km/h
09.04.2011 15:00 27,3 C 38 % 1018,8 hPa 0,0 l/m 7,1 km/h NO 11,7 C 27,2 C 4,0 km/h
09.04.2011 16:00 29,8 C 32 % 1018,3 hPa 0,0 l/m 5,8 km/h N 11,3 C 29,8 C 3,2 km/h
09.04.2011 17:00 29,2 C 32 % 1018,0 hPa 0,0 l/m 7,8 km/h N-NO 10,8 C 29,0 C 4,3 km/h
09.04.2011 18:00 27,8 C 33 % 1018,1 hPa 0,0 l/m 8,4 km/h N-NO 10,0 C 27,5 C 4,7 km/h
09.04.2011 19:00 23,8 C 36 % 1018,0 hPa 0,0 l/m 0,0 km/h S-SO 7,8 C 23,8 C 0,0 km/h
09.04.2011 20:00 14,3 C 57 % 1018,4 hPa 0,0 l/m 0,0 km/h O-SO 5,9 C 14,3 C 0,0 km/h
09.04.2011 21:00 11,4 C 70 % 1019,0 hPa 0,0 l/m 0,0 km/h O-NO 6,1 C 11,4 C 0,0 km/h
09.04.2011 22:00 10,6 C 75 % 1019,0 hPa 0,0 l/m 0,0 km/h O-NO 6,4 C 10,6 C 0,0 km/h
09.04.2011 23:00 7,9 C 80 % 1019,3 hPa 0,0 l/m 0,0 km/h SO 4,7 C 7,9 C 0,0 km/h
10.04.2011 00:00 6,8 C 83 % 1019,4 hPa 0,0 l/m 0,0 km/h SO 4,1 C 6,8 C 0,0 km/h
10.04.2011 01:00 5,4 C 84 % 1019,7 hPa 0,0 l/m 0,0 km/h NO 2,9 C 5,4 C 0,0 km/h
10.04.2011 02:00 5,5 C 85 % 1019,6 hPa 0,0 l/m 0,0 km/h NO 3,2 C 5,5 C 0,0 km/h
10.04.2011 03:00 5,2 C 85 % 1019,7 hPa 0,0 l/m 0,0 km/h NO 2,9 C 5,2 C 0,0 km/h
10.04.2011 04:00 4,4 C 86 % 1019,6 hPa 0,0 l/m 0,0 km/h N-NO 2,3 C 4,4 C 0,0 km/h
10.04.2011 05:00 3,9 C 86 % 1019,8 hPa 0,0 l/m 0,0 km/h NO 1,8 C 3,9 C 0,0 km/h
10.04.2011 06:00 3,4 C 87 % 1019,9 hPa 0,0 l/m 0,0 km/h O-NO 1,4 C 3,4 C 0,0 km/h
10.04.2011 07:00 3,9 C 87 % 1020,3 hPa 0,0 l/m 0,0 km/h W-SW 1,9 C 3,9 C 0,0 km/h
10.04.2011 08:00 7,8 C 84 % 1020,6 hPa 0,0 l/m 0,0 km/h NO 5,3 C 7,8 C 0,0 km/h
10.04.2011 09:00 14,3 C 65 % 1020,7 hPa 0,0 l/m 0,0 km/h N 7,8 C 14,3 C 0,0 km/h
10.04.2011 10:00 18,1 C 50 % 1020,8 hPa 0,0 l/m 0,0 km/h W-NW 7,5 C 18,1 C 0,0 km/h
10.04.2011 11:00 21,8 C 41 % 1020,6 hPa 0,0 l/m 0,0 km/h W 8,0 C 21,8 C 0,0 km/h
10.04.2011 12:00 22,2 C 39 % 1020,2 hPa 0,0 l/m 10,4 km/h NW 7,6 C 21,0 C 5,8 km/h
10.04.2011 13:00 23,3 C 39 % 1020,1 hPa 0,0 l/m 1,9 km/h W-NW 8,6 C 23,3 C 1,1 km/h
10.04.2011 14:00 23,8 C 38 % 1019,5 hPa 0,0 l/m 7,8 km/h NW 8,6 C 23,4 C 4,3 km/h
10.04.2011 15:00 26,1 C 35 % 1018,8 hPa 0,0 l/m 14,3 km/h N 9,4 C 24,7 C 7,9 km/h
10.04.2011 16:00 29,4 C 28 % 1018,2 hPa 0,0 l/m 5,2 km/h N-NO 9,0 C 29,4 C 2,9 km/h
10.04.2011 17:00 28,4 C 27 % 1018,0 hPa 0,0 l/m 0,0 km/h N-NO 7,6 C 28,4 C 0,0 km/h
10.04.2011 18:00 26,3 C 30 % 1018,1 hPa 0,0 l/m 8,4 km/h N-NO 7,3 C 25,9 C 4,7 km/h
10.04.2011 19:00 21,9 C 35 % 1018,4 hPa 0,0 l/m 8,4 km/h O-NO 5,7 C 21,2 C 4,7 km/h
10.04.2011 20:00 15,6 C 51 % 1019,0 hPa 0,0 l/m 0,0 km/h NO 5,5 C 15,6 C 0,0 km/h
10.04.2011 21:00 10,9 C 71 % 1019,8 hPa 0,0 l/m 0,0 km/h O-SO 5,9 C 10,9 C 0,0 km/h
10.04.2011 22:00 9,8 C 74 % 1020,1 hPa 0,0 l/m 0,0 km/h SO 5,4 C 9,8 C 0,0 km/h
10.04.2011 23:00 9,2 C 74 % 1020,2 hPa 0,0 l/m 0,0 km/h NO 4,8 C 9,2 C 0,0 km/h
Min-Datum _ 10.04.11 10.04.11 04.04.11 - 04.04.11 - 10.04.11 10.04.11 04.04.11
_ Min-Zeit 06:30 17:30 00:30 - 00:30 - 06:30 06:30 00:30
Minimum _ 3,4 C 27 % 1012,6 hPa - 0,0 km/h - 1,4 C 3,4 C 0,0 km/h
Max-Datum _ 07.04.11 04.04.11 06.04.11 04.04.11 07.04.11 - 07.04.11 07.04.11 07.04.11
_ Max-Zeit 16:30 08:30 10:30 06:30 15:30 - 09:30 16:30 15:30
Maximum _ 32,9 C 88 % 1028,3 hPa 3,6 l/m 24,6 km/h
W
- 14,2 C 32,9 C 13,7 km/h
W
Durchschnitt _ 15,2 C 66 % 1022,5 hPa #16,0 l/m 1,8 km/h SO 7,8 C 15,0 C 1,0 km/h
www.sexauwetter.de